Arbalist — J8B3636 — position and weather

sailwx.info

Track history (hours):
 
Tides and Currents Weather Stations Pressure Air Temp Water Temp Dewpoint Dewpoint Depression Visibility Wind Speed Wind Dir Waves Ship Positions

Arbalist

Last reported at 2014-Dec-16 10:33 UTC. Time now 2014-Dec-20 20:06 UTC.
Position N 35°52' E 025°57'.

Length 115 m; draft 4.5 m.

Type: Cargo ship. MMSI: 37579300.

Date/timePositionNaut miles runAvg speedWind from/ knotsBaromVisibWave heightAir tempDewpointWater temp
2014-Dec-16 10:33N 35°52' E 025°57'9 9.0
2014-Dec-16 09:33N 35°58' E 025°48'9 9.1
2014-Dec-16 08:33N 36°03' E 025°40'9 9.3
2014-Dec-16 07:33N 36°09' E 025°31'9 9.3
2014-Dec-16 06:33N 36°15' E 025°22'9 9.4
2014-Dec-16 05:33N 36°21' E 025°13'10 9.5
2014-Dec-16 04:33N 36°28' E 025°04'10 9.5
2014-Dec-16 03:32N 36°33' E 024°55'10 9.5
2014-Dec-16 02:31N 36°40' E 024°45'1110.3
2014-Dec-16 01:29N 36°50' E 024°41'9 9.2
2014-Dec-16 00:31N 36°56' E 024°33'8 8.6
2014-Dec-15 23:33N 37°02' E 024°26'9 9.4
2014-Dec-15 22:33N 37°08' E 024°17'9 9.2
2014-Dec-15 21:33N 37°14' E 024°08'12 9.1
2014-Dec-15 20:12N 37°23' E 023°57'9 8.8
2014-Dec-15 19:10N 37°30' E 023°50'6 9.2
2014-Dec-15 18:32N 37°35' E 023°46'9 9.0
2014-Dec-15 17:33N 37°42' E 023°40'9 9.3
2014-Dec-15 16:33N 37°51' E 023°36'5 4.6
2014-Dec-15 15:31N 37°55' E 023°34'0 0.0
2014-Dec-15 14:31N 37°55' E 023°34'0 0.0
2014-Dec-15 13:31N 37°55' E 023°34'0 0.0
2014-Dec-15 12:31N 37°55' E 023°34'0 0.1
2014-Dec-15 11:31N 37°55' E 023°34'0 0.0
2014-Dec-15 10:31N 37°55' E 023°34'0 0.1
2014-Dec-15 09:31N 37°55' E 023°34'0 0.0
2014-Dec-15 08:34N 37°55' E 023°34'0 0.0
2014-Dec-15 07:33N 37°55' E 023°34'0 0.0
2014-Dec-15 06:33N 37°55' E 023°34'0 0.0
2014-Dec-15 05:33N 37°55' E 023°34'0 0.0
2014-Dec-15 04:33N 37°55' E 023°34'0 0.0
2014-Dec-15 03:33N 37°55' E 023°34'0 0.0
2014-Dec-15 02:33N 37°55' E 023°34'0 0.0
2014-Dec-15 01:33N 37°55' E 023°34'0 0.0
2014-Dec-15 00:33N 37°55' E 023°34'0 0.0
2014-Dec-14 23:33N 37°55' E 023°34'0 0.0
2014-Dec-14 22:30N 37°55' E 023°34'0 0.0
2014-Dec-14 21:33N 37°55' E 023°34'0 0.0
2014-Dec-14 20:33N 37°55' E 023°34'0 0.1
2014-Dec-14 19:33N 37°55' E 023°34'0 0.1
2014-Dec-14 18:33N 37°55' E 023°34'0 0.1
2014-Dec-14 17:33N 37°56' E 023°34'0 0.0
2014-Dec-14 16:33N 37°56' E 023°34'0 0.0
2014-Dec-14 15:30N 37°55' E 023°34'0 0.0
2014-Dec-14 14:32N 37°55' E 023°34'0 0.0
2014-Dec-14 13:32N 37°55' E 023°34'0 0.0
2014-Dec-14 12:32N 37°55' E 023°34'0 0.1
2014-Dec-14 11:32N 37°55' E 023°34'0 0.1
2014-Dec-14 10:32N 37°55' E 023°34'0 0.0
2014-Dec-14 09:29N 37°55' E 023°34'0 0.0
2014-Dec-14 08:32N 37°55' E 023°34'0 0.0
2014-Dec-14 07:29N 37°55' E 023°34'0 0.0
2014-Dec-14 06:32N 37°55' E 023°34'0 0.0
2014-Dec-14 05:32N 37°55' E 023°34'0 0.0
2014-Dec-14 04:32N 37°55' E 023°34'0 0.0
2014-Dec-14 03:32N 37°55' E 023°34'0 0.0
2014-Dec-14 02:32N 37°55' E 023°34'0 0.0
2014-Dec-14 01:32N 37°55' E 023°34'0 0.0
2014-Dec-14 00:32N 37°55' E 023°34'0 0.0
2014-Dec-13 23:32N 37°55' E 023°34'0 0.0
2014-Dec-13 22:32N 37°55' E 023°34'0 0.0
2014-Dec-13 21:32N 37°55' E 023°34'0 0.0
2014-Dec-13 20:31N 37°55' E 023°34'0 0.0
2014-Dec-13 19:31N 37°55' E 023°34'0 0.0
2014-Dec-13 18:31N 37°55' E 023°34'0 0.0
2014-Dec-13 17:31N 37°55' E 023°34'0 0.0
2014-Dec-13 16:31N 37°55' E 023°34'0 0.0
2014-Dec-13 15:28N 37°55' E 023°34'0 0.0
2014-Dec-13 14:31N 37°55' E 023°34'0 0.0
2014-Dec-13 13:28N 37°55' E 023°34'0 0.0
2014-Dec-13 12:31N 37°55' E 023°34'0 0.0
2014-Dec-13 11:31N 37°55' E 023°34'0 0.0
2014-Dec-13 10:31N 37°55' E 023°34'0 0.0
2014-Dec-13 09:31N 37°55' E 023°34'0 0.0
2014-Dec-13 08:31N 37°55' E 023°34'0 0.0
2014-Dec-13 07:31N 37°55' E 023°34'0 0.0
2014-Dec-13 06:33N 37°55' E 023°34'1 0.8
2014-Dec-13 05:33N 37°55' E 023°34'7 6.8
2014-Dec-13 04:33N 37°50' E 023°40'9 8.6
2014-Dec-13 03:33N 37°42' E 023°45'9 8.6
2014-Dec-13 02:32N 37°37' E 023°54'9 9.3
2014-Dec-13 01:33N 37°36' E 024°05'1110.4
2014-Dec-13 00:28N 37°43' E 024°16'1210.6
2014-Dec-12 23:20N 37°51' E 024°28'2010.5
2014-Dec-12 21:23N 38°07' E 024°44'  
Track history (hours):
 
Tides and Currents Weather Stations Pressure Air Temp Water Temp Dewpoint Dewpoint Depression Visibility Wind Speed Wind Dir Waves Ship Positions

Arbalist

Last reported at 2014-Dec-16 10:33 UTC. Time now 2014-Dec-20 20:06 UTC.
Position N 35°52' E 025°57'.

Length 115 m; draft 4.5 m.

Type: Cargo ship. MMSI: 37579300.

Date/timePositionNaut miles runAvg speedWind from/ knotsBaromVisibWave heightAir tempDewpointWater temp
2014-Dec-16 10:33N 35°52' E 025°57'9 9.0
2014-Dec-16 09:33N 35°58' E 025°48'9 9.1
2014-Dec-16 08:33N 36°03' E 025°40'9 9.3
2014-Dec-16 07:33N 36°09' E 025°31'9 9.3
2014-Dec-16 06:33N 36°15' E 025°22'9 9.4
2014-Dec-16 05:33N 36°21' E 025°13'10 9.5
2014-Dec-16 04:33N 36°28' E 025°04'10 9.5
2014-Dec-16 03:32N 36°33' E 024°55'10 9.5
2014-Dec-16 02:31N 36°40' E 024°45'1110.3
2014-Dec-16 01:29N 36°50' E 024°41'9 9.2
2014-Dec-16 00:31N 36°56' E 024°33'8 8.6
2014-Dec-15 23:33N 37°02' E 024°26'9 9.4
2014-Dec-15 22:33N 37°08' E 024°17'9 9.2
2014-Dec-15 21:33N 37°14' E 024°08'12 9.1
2014-Dec-15 20:12N 37°23' E 023°57'9 8.8
2014-Dec-15 19:10N 37°30' E 023°50'6 9.2
2014-Dec-15 18:32N 37°35' E 023°46'9 9.0
2014-Dec-15 17:33N 37°42' E 023°40'9 9.3
2014-Dec-15 16:33N 37°51' E 023°36'5 4.6
2014-Dec-15 15:31N 37°55' E 023°34'0 0.0
2014-Dec-15 14:31N 37°55' E 023°34'0 0.0
2014-Dec-15 13:31N 37°55' E 023°34'0 0.0
2014-Dec-15 12:31N 37°55' E 023°34'0 0.1
2014-Dec-15 11:31N 37°55' E 023°34'0 0.0
2014-Dec-15 10:31N 37°55' E 023°34'0 0.1
2014-Dec-15 09:31N 37°55' E 023°34'0 0.0
2014-Dec-15 08:34N 37°55' E 023°34'0 0.0
2014-Dec-15 07:33N 37°55' E 023°34'0 0.0
2014-Dec-15 06:33N 37°55' E 023°34'0 0.0
2014-Dec-15 05:33N 37°55' E 023°34'0 0.0
2014-Dec-15 04:33N 37°55' E 023°34'0 0.0
2014-Dec-15 03:33N 37°55' E 023°34'0 0.0
2014-Dec-15 02:33N 37°55' E 023°34'0 0.0
2014-Dec-15 01:33N 37°55' E 023°34'0 0.0
2014-Dec-15 00:33N 37°55' E 023°34'0 0.0
2014-Dec-14 23:33N 37°55' E 023°34'0 0.0
2014-Dec-14 22:30N 37°55' E 023°34'0 0.0
2014-Dec-14 21:33N 37°55' E 023°34'0 0.0
2014-Dec-14 20:33N 37°55' E 023°34'0 0.1
2014-Dec-14 19:33N 37°55' E 023°34'0 0.1
2014-Dec-14 18:33N 37°55' E 023°34'0 0.1
2014-Dec-14 17:33N 37°56' E 023°34'0 0.0
2014-Dec-14 16:33N 37°56' E 023°34'0 0.0
2014-Dec-14 15:30N 37°55' E 023°34'0 0.0
2014-Dec-14 14:32N 37°55' E 023°34'0 0.0
2014-Dec-14 13:32N 37°55' E 023°34'0 0.0
2014-Dec-14 12:32N 37°55' E 023°34'0 0.1
2014-Dec-14 11:32N 37°55' E 023°34'0 0.1
2014-Dec-14 10:32N 37°55' E 023°34'0 0.0
2014-Dec-14 09:29N 37°55' E 023°34'0 0.0
2014-Dec-14 08:32N 37°55' E 023°34'0 0.0
2014-Dec-14 07:29N 37°55' E 023°34'0 0.0
2014-Dec-14 06:32N 37°55' E 023°34'0 0.0
2014-Dec-14 05:32N 37°55' E 023°34'0 0.0
2014-Dec-14 04:32N 37°55' E 023°34'0 0.0
2014-Dec-14 03:32N 37°55' E 023°34'0 0.0
2014-Dec-14 02:32N 37°55' E 023°34'0 0.0
2014-Dec-14 01:32N 37°55' E 023°34'0 0.0
2014-Dec-14 00:32N 37°55' E 023°34'0 0.0
2014-Dec-13 23:32N 37°55' E 023°34'0 0.0
2014-Dec-13 22:32N 37°55' E 023°34'0 0.0
2014-Dec-13 21:32N 37°55' E 023°34'0 0.0
2014-Dec-13 20:31N 37°55' E 023°34'0 0.0
2014-Dec-13 19:31N 37°55' E 023°34'0 0.0
2014-Dec-13 18:31N 37°55' E 023°34'0 0.0
2014-Dec-13 17:31N 37°55' E 023°34'0 0.0
2014-Dec-13 16:31N 37°55' E 023°34'0 0.0
2014-Dec-13 15:28N 37°55' E 023°34'0 0.0
2014-Dec-13 14:31N 37°55' E 023°34'0 0.0
2014-Dec-13 13:28N 37°55' E 023°34'0 0.0
2014-Dec-13 12:31N 37°55' E 023°34'0 0.0
2014-Dec-13 11:31N 37°55' E 023°34'0 0.0
2014-Dec-13 10:31N 37°55' E 023°34'0 0.0
2014-Dec-13 09:31N 37°55' E 023°34'0 0.0
2014-Dec-13 08:31N 37°55' E 023°34'0 0.0
2014-Dec-13 07:31N 37°55' E 023°34'0 0.0
2014-Dec-13 06:33N 37°55' E 023°34'1 0.8
2014-Dec-13 05:33N 37°55' E 023°34'7 6.8
2014-Dec-13 04:33N 37°50' E 023°40'9 8.6
2014-Dec-13 03:33N 37°42' E 023°45'9 8.6
2014-Dec-13 02:32N 37°37' E 023°54'9 9.3
2014-Dec-13 01:33N 37°36' E 024°05'1110.4
2014-Dec-13 00:28N 37°43' E 024°16'1210.6
2014-Dec-12 23:20N 37°51' E 024°28'2010.5
2014-Dec-12 21:23N 38°07' E 024°44'  

Dump ship's entire track history